Ruth, Mississippi
Current Conditions -  °F | °C
As of 12:53 PM on Friday 31 Oct 2014 (Local Time) from KMCB Reporting Station
Clear Clear  
Wind Chill: 69°   Ceiling: Unl
Heat Index: 69°   Visibility: 10mi
Dew Point: 44°   Wind: 15mph
Humidity: 40%   Direction: 330°NNW
Pressure: 30.05"   Gusts: 25mph
Location:  31.38°N, 90.32°W
Report Text: KMCB 311753Z AUTO 33013G22KT 10SM CLR 21/07 A3005 RMK AO2 SLP173 T02060067 10217 20072 58007
Loading
Personal Weather Stations






























Interactive Weather Map
Tropical Storm Tracking
New forecast layout! Learn more

10-Day Weather Forecast

Advertisements
Track Severe Weather on mobile